Time;durP1;ratioP1;P1;durP2;ratioP2;P2;SDS_P1;SDS_P2;PMS_P1;PMS_P2;Temp;Humidity;BMP_temperature;BMP_pressure;BME280_temperature;BME280_humidity;BME280_pressure;Samples;Min_cycle;Max_cycle;Signal;HPM_P1;HPM_P2
2022/05/25 00:00:27;;;;;;;20.13;5.60;;;19.90;99.90;;;;;;4759394;30;20040;-91
2022/05/25 00:02:55;;;;;;;16.77;4.35;;;19.90;99.90;;;;;;4758944;30;20088;-93
2022/05/25 00:05:25;;;;;;;18.33;5.50;;;19.90;99.90;;;;;;4758943;30;20067;-92
2022/05/25 00:07:51;;;;;;;16.10;5.28;;;19.90;99.90;;;;;;4759267;30;20043;-92
2022/05/25 00:10:18;;;;;;;15.02;5.10;;;19.90;99.90;;;;;;4759043;30;20035;-91
2022/05/25 00:12:45;;;;;;;20.35;4.70;;;19.90;99.90;;;;;;4759274;30;20027;-92
2022/05/25 00:15:13;;;;;;;16.45;4.90;;;19.90;99.90;;;;;;4758780;30;20035;-92
2022/05/25 00:17:40;;;;;;;14.75;5.28;;;19.80;99.90;;;;;;4758932;30;20031;-92
2022/05/25 00:20:11;;;;;;;20.33;5.18;;;19.80;99.90;;;;;;4758843;30;20536;-92
2022/05/25 00:22:46;;;;;;;18.65;5.50;;;19.80;99.90;;;;;;4758766;30;20039;-92
2022/05/25 00:25:23;;;;;;;14.73;4.68;;;19.80;99.90;;;;;;4758967;30;20044;-90
2022/05/25 00:27:51;;;;;;;19.15;7.72;;;19.80;99.90;;;;;;4758820;30;20039;-90
2022/05/25 00:30:19;;;;;;;15.20;5.38;;;19.80;99.90;;;;;;4758445;30;20062;-90
2022/05/25 00:32:46;;;;;;;13.25;4.15;;;19.80;99.90;;;;;;4759108;30;20491;-91
2022/05/25 00:35:16;;;;;;;17.00;4.72;;;19.70;99.90;;;;;;4758600;30;20042;-92
2022/05/25 00:37:44;;;;;;;10.68;4.05;;;19.70;99.90;;;;;;4758566;30;20107;-92
2022/05/25 00:40:17;;;;;;;14.38;4.05;;;19.70;99.90;;;;;;4758514;30;20486;-91
2022/05/25 00:42:44;;;;;;;19.00;4.45;;;19.60;99.90;;;;;;4758466;30;20409;-92
2022/05/25 00:45:12;;;;;;;20.13;4.82;;;19.60;99.90;;;;;;4758725;30;20457;-92
2022/05/25 00:47:42;;;;;;;13.23;3.58;;;19.60;99.90;;;;;;4758676;30;20118;-93
2022/05/25 00:50:13;;;;;;;13.68;4.63;;;19.60;99.90;;;;;;4758523;30;20035;-90
2022/05/25 00:52:48;;;;;;;16.63;4.10;;;19.60;99.90;;;;;;4758788;30;20069;-91
2022/05/25 00:55:28;;;;;;;17.75;4.07;;;19.60;99.90;;;;;;4758337;30;20043;-91
2022/05/25 00:58:00;;;;;;;13.63;4.10;;;19.60;99.90;;;;;;4773230;30;20036;-92
2022/05/25 01:00:30;;;;;;;18.98;4.50;;;19.60;99.90;;;;;;4758396;30;20043;-91
2022/05/25 01:03:19;;;;;;;17.42;4.07;;;19.50;99.90;;;;;;4758456;30;20066;-92
2022/05/25 01:05:58;;;;;;;15.70;3.50;;;19.60;99.90;;;;;;4773089;30;20047;-90
2022/05/25 01:08:45;;;;;;;17.88;4.00;;;19.60;99.90;;;;;;4773014;30;20088;-90
2022/05/25 01:11:53;;;;;;;18.95;4.80;;;19.50;99.90;;;;;;4772437;30;20409;-90
2022/05/25 01:14:57;;;;;;;15.52;4.30;;;19.50;99.90;;;;;;4773015;30;20042;-92
2022/05/25 01:18:03;;;;;;;15.57;4.15;;;19.50;99.90;;;;;;4772959;30;20491;-92
2022/05/25 01:20:53;;;;;;;15.73;4.15;;;19.50;99.90;;;;;;4757975;30;20043;-92
2022/05/25 01:24:01;;;;;;;10.30;3.72;;;19.50;99.90;;;;;;4772986;30;20132;-92
2022/05/25 01:26:46;;;;;;;14.07;3.50;;;19.50;99.90;;;;;;4763697;30;20085;-90
2022/05/25 01:29:36;;;;;;;15.88;3.70;;;19.40;99.90;;;;;;4772939;30;20059;-91
2022/05/25 01:32:31;;;;;;;20.50;3.53;;;19.40;99.90;;;;;;4772535;30;20047;-92
2022/05/25 01:35:08;;;;;;;17.58;3.97;;;19.40;99.90;;;;;;4758392;30;20039;-92
2022/05/25 01:37:46;;;;;;;13.55;3.70;;;19.40;99.90;;;;;;4757975;30;20046;-91
2022/05/25 01:40:36;;;;;;;13.35;3.58;;;19.40;99.90;;;;;;4773000;30;20125;-91
2022/05/25 01:43:12;;;;;;;14.68;3.67;;;19.30;99.90;;;;;;4758033;30;20061;-91
2022/05/25 01:45:46;;;;;;;18.67;4.47;;;19.40;99.90;;;;;;4757935;30;20051;-92
2022/05/25 01:48:16;;;;;;;15.35;3.58;;;19.40;99.90;;;;;;4757936;30;20031;-91
2022/05/25 01:50:52;;;;;;;10.02;3.55;;;19.40;99.90;;;;;;4757895;30;20063;-91
2022/05/25 01:53:22;;;;;;;12.05;3.30;;;19.40;99.90;;;;;;4757929;30;20035;-91
2022/05/25 01:55:54;;;;;;;16.83;3.97;;;19.40;99.90;;;;;;4757762;30;20040;-91
2022/05/25 01:58:24;;;;;;;14.05;3.88;;;19.40;99.90;;;;;;4758372;30;20065;-90
2022/05/25 02:01:10;;;;;;;13.85;3.72;;;19.40;99.90;;;;;;4757798;30;20485;-91
2022/05/25 02:06:48;;;;;;;18.63;4.13;;;19.40;99.90;;;;;;4772686;29;20510;-91
2022/05/25 02:09:41;;;;;;;17.02;3.80;;;19.40;99.90;;;;;;4775647;30;20034;-92
2022/05/25 02:12:36;;;;;;;19.73;4.05;;;19.40;99.90;;;;;;4775637;30;20505;-92
2022/05/25 02:15:21;;;;;;;15.43;3.88;;;19.40;99.90;;;;;;4760842;30;20035;-91
2022/05/25 02:18:17;;;;;;;17.38;3.88;;;19.40;99.90;;;;;;4775866;30;20510;-90
2022/05/25 02:20:49;;;;;;;18.38;4.18;;;19.50;99.90;;;;;;4760837;30;20042;-92
2022/05/25 02:23:55;;;;;;;12.73;3.40;;;19.40;99.90;;;;;;4775571;30;20035;-88
2022/05/25 02:27:03;;;;;;;17.55;4.20;;;19.50;99.90;;;;;;4775441;30;20047;-90
2022/05/25 02:29:49;;;;;;;18.08;4.47;;;19.50;99.90;;;;;;4704250;30;20433;-90
2022/05/25 02:32:28;;;;;;;19.20;4.45;;;19.40;99.90;;;;;;4718722;30;20144;-91
2022/05/25 02:34:58;;;;;;;16.25;4.00;;;19.40;99.90;;;;;;4718979;30;20099;-89
2022/05/25 02:37:30;;;;;;;21.52;4.65;;;19.40;99.90;;;;;;4719196;30;20528;-91
2022/05/25 02:40:07;;;;;;;19.65;4.13;;;19.40;99.90;;;;;;4718724;30;20538;-91
2022/05/25 02:42:38;;;;;;;16.58;4.15;;;19.40;99.90;;;;;;4718680;30;20056;-91
2022/05/25 02:45:13;;;;;;;16.00;4.45;;;19.40;99.90;;;;;;4718671;30;20052;-91
2022/05/25 02:47:40;;;;;;;18.85;4.40;;;19.40;99.90;;;;;;4718745;30;20041;-91
2022/05/25 02:50:08;;;;;;;15.45;3.95;;;19.40;99.90;;;;;;4703973;30;20578;-92
2022/05/25 02:52:35;;;;;;;20.42;4.00;;;19.30;99.90;;;;;;4718979;30;20041;-93
2022/05/25 02:55:02;;;;;;;17.80;4.00;;;19.30;99.90;;;;;;4718762;30;20033;-91
2022/05/25 02:57:29;;;;;;;9.48;3.75;;;19.30;99.90;;;;;;4718599;30;20033;-90
2022/05/25 02:59:56;;;;;;;19.05;4.30;;;19.30;99.90;;;;;;4718616;30;20502;-91
2022/05/25 03:02:38;;;;;;;17.23;4.25;;;19.30;99.90;;;;;;4718524;30;20037;-91
2022/05/25 03:05:08;;;;;;;16.30;3.90;;;19.30;99.90;;;;;;4718463;30;20049;-91
2022/05/25 03:07:44;;;;;;;22.25;4.47;;;19.30;99.90;;;;;;4786825;30;20059;-91
2022/05/25 03:10:11;;;;;;;10.82;3.67;;;19.20;99.90;;;;;;4760072;30;20042;-90
2022/05/25 03:12:44;;;;;;;13.45;3.63;;;19.30;99.90;;;;;;4760022;30;20099;-90
2022/05/25 03:15:10;;;;;;;16.40;4.55;;;19.20;99.90;;;;;;4760131;30;20048;-93
2022/05/25 03:17:37;;;;;;;14.45;4.00;;;19.20;99.90;;;;;;4755900;30;20035;-91
2022/05/25 03:20:04;;;;;;;15.15;3.90;;;19.20;99.90;;;;;;4760057;30;20114;-92
2022/05/25 03:22:34;;;;;;;15.38;3.55;;;19.20;99.90;;;;;;4759846;30;20105;-92
2022/05/25 03:25:01;;;;;;;17.25;4.15;;;19.20;99.90;;;;;;4759514;30;20130;-91
2022/05/25 03:27:27;;;;;;;15.32;4.10;;;19.30;99.90;;;;;;4759615;30;20031;-91
2022/05/25 03:29:54;;;;;;;16.50;3.95;;;19.30;99.90;;;;;;4759419;29;20042;-92
2022/05/25 03:32:21;;;;;;;16.30;4.43;;;19.30;99.90;;;;;;4774530;30;20134;-90
2022/05/25 03:34:48;;;;;;;13.93;3.30;;;19.40;99.90;;;;;;4759601;30;20031;-93
2022/05/25 03:37:15;;;;;;;15.63;3.60;;;19.40;99.90;;;;;;4759455;30;20037;-91
2022/05/25 03:39:42;;;;;;;16.73;3.70;;;19.40;99.90;;;;;;4759533;30;20035;-92
2022/05/25 03:42:14;;;;;;;15.68;3.50;;;19.40;99.90;;;;;;4759381;30;20031;-91
2022/05/25 03:44:41;;;;;;;12.52;3.08;;;19.40;99.90;;;;;;4759469;30;20557;-92
2022/05/25 03:47:11;;;;;;;13.85;3.42;;;19.50;99.90;;;;;;4759196;30;20047;-92
2022/05/25 03:49:37;;;;;;;13.82;4.13;;;19.50;99.90;;;;;;4759422;30;20042;-91
2022/05/25 03:52:05;;;;;;;12.77;3.38;;;19.60;99.90;;;;;;4759415;30;20031;-91
2022/05/25 03:54:32;;;;;;;14.18;3.75;;;19.60;99.90;;;;;;4759314;30;20043;-91
2022/05/25 03:56:59;;;;;;;11.50;3.40;;;19.70;99.90;;;;;;4759302;30;20031;-92
2022/05/25 03:59:26;;;;;;;12.50;3.15;;;19.70;99.90;;;;;;4759496;30;20497;-92
2022/05/25 04:01:53;;;;;;;11.70;3.30;;;19.80;99.90;;;;;;4759084;30;20051;-93
2022/05/25 04:04:19;;;;;;;17.17;3.42;;;19.90;99.90;;;;;;4759140;30;20039;-93
2022/05/25 04:06:46;;;;;;;8.85;2.80;;;20.00;99.90;;;;;;4758995;30;20043;-93
2022/05/25 04:09:13;;;;;;;8.43;3.13;;;20.00;99.90;;;;;;4759338;30;20035;-91
2022/05/25 04:11:42;;;;;;;14.07;2.80;;;20.10;99.90;;;;;;4759097;30;20515;-91
2022/05/25 04:14:27;;;;;;;7.40;2.63;;;20.10;99.90;;;;;;4758849;30;20035;-92
2022/05/25 04:16:54;;;;;;;12.57;2.72;;;20.20;99.90;;;;;;4759018;30;20501;-93
2022/05/25 04:19:21;;;;;;;14.35;2.72;;;20.30;99.90;;;;;;4759024;30;20530;-92
2022/05/25 04:21:48;;;;;;;10.35;2.30;;;20.40;99.90;;;;;;4758834;30;20134;-91
2022/05/25 04:24:16;;;;;;;11.90;2.55;;;20.50;99.90;;;;;;4758749;30;20088;-92
2022/05/25 04:26:43;;;;;;;8.90;2.30;;;20.60;99.90;;;;;;4758822;30;20040;-93
2022/05/25 04:29:10;;;;;;;9.57;2.55;;;20.80;99.90;;;;;;4758704;30;20027;-93
2022/05/25 04:31:36;;;;;;;8.88;2.40;;;21.00;99.90;;;;;;4758312;30;20051;-92
2022/05/25 04:34:03;;;;;;;9.18;2.30;;;21.20;99.90;;;;;;4773677;30;20035;-93
2022/05/25 04:36:30;;;;;;;11.73;2.25;;;21.40;99.90;;;;;;4758665;30;20027;-94
2022/05/25 04:38:56;;;;;;;10.73;2.28;;;21.70;99.90;;;;;;4758961;30;20051;-92
2022/05/25 04:41:23;;;;;;;6.80;1.90;;;22.30;99.90;;;;;;4758674;30;20027;-92
2022/05/25 04:43:50;;;;;;;13.07;2.38;;;23.00;99.90;;;;;;4758485;30;20456;-92
2022/05/25 04:46:16;;;;;;;10.45;2.45;;;23.90;99.90;;;;;;4758923;30;20459;-92
2022/05/25 04:48:44;;;;;;;7.85;2.03;;;24.40;99.90;;;;;;4758414;30;20054;-91
2022/05/25 04:51:12;;;;;;;10.82;2.45;;;24.90;99.90;;;;;;4758457;30;20028;-93
2022/05/25 04:53:40;;;;;;;9.55;2.78;;;25.50;99.90;;;;;;4758449;30;20486;-93
2022/05/25 04:58:52;;;;;;;11.85;2.30;;;25.70;99.90;;;;;;4773622;30;20042;-93
2022/05/25 05:01:19;;;;;;;10.38;2.15;;;26.20;99.90;;;;;;4758361;30;20486;-92
2022/05/25 05:03:46;;;;;;;8.50;2.42;;;26.90;99.90;;;;;;4758285;30;20055;-88
2022/05/25 05:06:13;;;;;;;10.45;2.45;;;26.80;99.90;;;;;;4758358;30;20047;-93
2022/05/25 05:08:40;;;;;;;11.13;1.92;;;26.60;99.90;;;;;;4758314;30;20038;-88
2022/05/25 05:14:46;;;;;;;4.60;2.30;;;27.10;99.90;;;;;;4752883;30;20063;-94
2022/05/25 05:17:21;;;;;;;4.97;1.63;;;27.80;99.90;;;;;;4737441;30;20048;-93
2022/05/25 05:20:15;;;;;;;4.03;1.75;;;27.40;99.90;;;;;;4769214;24;20047;-94
2022/05/25 05:22:45;;;;;;;10.43;2.40;;;27.70;99.90;;;;;;4766122;30;20134;-94
2022/05/25 05:25:21;;;;;;;5.53;2.25;;;28.40;99.90;;;;;;4752903;30;20048;-93
2022/05/25 05:27:48;;;;;;;10.73;2.50;;;29.10;99.90;;;;;;4744115;30;20036;-87
2022/05/25 05:30:20;;;;;;;9.20;2.55;;;28.90;99.90;;;;;;4743439;30;20522;-89
2022/05/25 05:32:48;;;;;;;10.13;2.67;;;28.80;99.90;;;;;;4729481;30;20032;-89
2022/05/25 05:35:15;;;;;;;7.20;2.67;;;29.30;99.90;;;;;;4744970;30;20024;-89
2022/05/25 05:37:48;;;;;;;9.27;2.75;;;30.10;99.90;;;;;;4729127;30;20028;-92
2022/05/25 05:40:18;;;;;;;6.43;2.83;;;30.00;99.90;;;;;;4730852;30;20388;-90
2022/05/25 05:42:48;;;;;;;4.57;2.53;;;29.60;99.90;;;;;;4745085;30;20040;-90
2022/05/25 05:45:20;;;;;;;8.50;3.67;;;30.10;99.90;;;;;;4753361;30;20050;-88
2022/05/25 05:47:56;;;;;;;7.85;2.50;;;30.30;99.90;;;;;;4741499;30;20056;-90
2022/05/25 05:50:24;;;;;;;6.82;2.65;;;30.10;99.90;;;;;;4751105;30;20056;-91
2022/05/25 05:55:44;;;;;;;7.22;3.10;;;29.60;99.90;;;;;;4754433;30;20113;-88
2022/05/25 05:58:11;;;;;;;6.97;3.40;;;29.40;99.90;;;;;;4737493;30;20119;-91
2022/05/25 06:00:38;;;;;;;8.23;3.30;;;29.30;99.90;;;;;;4736749;30;20033;-90
2022/05/25 06:03:09;;;;;;;7.93;3.13;;;29.50;99.90;;;;;;4737880;30;20041;-92
2022/05/25 06:05:36;;;;;;;7.38;3.63;;;29.50;99.90;;;;;;4737627;30;20083;-91
2022/05/25 06:08:09;;;;;;;10.68;3.40;;;30.20;99.90;;;;;;4737459;30;20056;-92
2022/05/25 06:10:38;;;;;;;10.05;4.05;;;30.60;99.90;;;;;;4740429;30;20040;-93
2022/05/25 06:13:07;;;;;;;9.13;3.95;;;31.10;99.90;;;;;;4745358;30;20071;-92
2022/05/25 06:21:07;;;;;;;8.02;3.80;;;30.30;99.90;;;;;;4737188;30;20064;-92
2022/05/25 06:23:34;;;;;;;9.40;4.60;;;30.50;99.90;;;;;;4737046;30;20051;-91
2022/05/25 06:26:01;;;;;;;10.98;4.10;;;30.90;99.90;;;;;;4737029;30;20143;-92
2022/05/25 06:28:28;;;;;;;8.45;4.40;;;31.30;99.90;;;;;;4736928;30;20032;-94
2022/05/25 06:30:54;;;;;;;8.85;4.53;;;31.10;99.90;;;;;;4737059;30;20032;-92
2022/05/25 06:33:21;;;;;;;5.28;4.10;;;31.60;99.90;;;;;;4737112;30;20480;-93
2022/05/25 06:35:48;;;;;;;6.60;4.82;;;32.30;99.90;;;;;;4736836;30;20033;-92
2022/05/25 06:38:15;;;;;;;6.75;5.00;;;32.30;99.90;;;;;;4736953;30;20040;-93
2022/05/25 06:40:41;;;;;;;8.85;4.50;;;31.60;99.90;;;;;;4722679;30;20036;-92
2022/05/25 06:43:08;;;;;;;7.05;4.43;;;31.60;99.90;;;;;;4736870;30;20044;-92
2022/05/25 06:45:38;;;;;;;10.18;4.75;;;31.50;99.90;;;;;;4736766;30;20061;-94
2022/05/25 06:48:24;;;;;;;8.18;4.90;;;31.90;99.90;;;;;;4736723;30;20063;-93
2022/05/25 06:50:50;;;;;;;11.80;5.88;;;31.90;99.90;;;;;;4722197;30;20037;-92
2022/05/25 06:53:17;;;;;;;8.93;5.15;;;32.50;99.90;;;;;;4721687;30;20065;-92
2022/05/25 06:55:45;;;;;;;6.53;4.72;;;33.40;99.90;;;;;;4736357;30;20037;-92
2022/05/25 06:58:12;;;;;;;6.63;5.13;;;33.20;99.90;;;;;;4751589;30;20123;-93
2022/05/25 07:00:39;;;;;;;7.03;5.57;;;33.50;99.90;;;;;;4751220;30;20040;-94
2022/05/25 07:03:06;;;;;;;14.25;5.53;;;33.90;99.90;;;;;;4751364;30;20043;-93
2022/05/25 07:05:36;;;;;;;10.38;5.10;;;33.70;99.90;;;;;;4751009;30;20075;-92
2022/05/25 07:08:03;;;;;;;7.18;5.45;;;33.00;99.90;;;;;;4736461;30;20039;-94
2022/05/25 07:10:30;;;;;;;11.57;5.28;;;32.80;99.90;;;;;;4736718;30;20090;-93
2022/05/25 07:13:00;;;;;;;7.63;5.35;;;33.70;99.90;;;;;;4750924;30;20063;-91
2022/05/25 07:15:27;;;;;;;10.82;5.97;;;33.90;99.90;;;;;;4736186;30;20123;-91
2022/05/25 07:17:54;;;;;;;69.78;42.35;;;33.10;99.90;;;;;;4750875;30;20037;-92
2022/05/25 07:20:24;;;;;;;15.55;10.40;;;33.00;99.90;;;;;;4739284;30;20028;-92
2022/05/25 07:22:50;;;;;;;11.85;6.75;;;32.60;99.90;;;;;;4750431;30;20037;-88
2022/05/25 07:25:17;;;;;;;7.80;5.65;;;32.40;99.90;;;;;;4735947;30;20048;-92
2022/05/25 07:27:44;;;;;;;8.10;6.35;;;32.30;99.90;;;;;;4751134;30;20033;-90
2022/05/25 07:30:12;;;;;;;8.27;5.78;;;31.80;99.90;;;;;;4721462;30;20040;-90
2022/05/25 07:32:41;;;;;;;8.15;5.57;;;31.10;99.90;;;;;;4736228;30;20095;-89
2022/05/25 07:35:09;;;;;;;11.55;5.75;;;31.10;99.90;;;;;;4735808;30;20036;-89
2022/05/25 07:37:39;;;;;;;6.22;5.38;;;31.80;99.90;;;;;;4750827;30;20033;-89
2022/05/25 07:40:11;;;;;;;7.32;5.28;;;32.80;99.90;;;;;;4751339;30;20035;-91
2022/05/25 07:42:42;;;;;;;7.03;5.75;;;32.80;99.90;;;;;;4735744;30;20036;-90
2022/05/25 07:45:09;;;;;;;8.40;5.88;;;32.70;99.90;;;;;;4750944;30;20049;-91
2022/05/25 07:47:37;;;;;;;9.25;6.68;;;32.70;99.90;;;;;;4750528;30;20032;-91
2022/05/25 07:50:05;;;;;;;8.00;6.28;;;33.00;99.90;;;;;;4750224;30;20037;-90
2022/05/25 07:52:37;;;;;;;8.20;6.10;;;33.40;99.90;;;;;;4735573;30;20393;-91
2022/05/25 07:55:19;;;;;;;8.73;6.18;;;33.50;99.90;;;;;;4747726;30;20048;-91
2022/05/25 07:57:46;;;;;;;8.02;6.40;;;32.50;99.90;;;;;;4750076;30;20045;-91
2022/05/25 08:00:15;;;;;;;8.70;6.10;;;33.10;99.90;;;;;;4750184;30;20044;-92
2022/05/25 08:05:47;;;;;;;13.07;6.88;;;33.60;99.90;;;;;;4749378;30;20049;-90
2022/05/25 08:08:21;;;;;;;10.00;7.38;;;33.70;99.90;;;;;;4750038;30;20036;-90
2022/05/25 08:10:57;;;;;;;7.82;6.57;;;33.70;99.90;;;;;;4735343;30;20495;-91
2022/05/25 08:14:13;;;;;;;9.10;6.95;;;34.10;99.90;;;;;;4756872;30;20037;-94
2022/05/25 08:29:18;;;;;;;6.70;5.82;;;33.60;99.90;;;;;;5175317;24;20054;-93
2022/05/25 08:53:10;;;;;;;8.98;6.10;;;32.60;99.90;;;;;;5344460;24;20078;-93
2022/05/25 09:00:32;;;;;;;6.60;4.40;;;32.00;99.90;;;;;;4757991;30;20046;-94
2022/05/25 09:04:29;;;;;;;;;;;;;;;;;;;;;
2022/05/25 11:03:06;;;;;;;12.93;11.73;;;32.60;91.70;;;;;;5103697;24;20055;-93
2022/05/25 11:05:49;;;;;;;13.20;12.00;;;32.80;91.00;;;;;;4763975;30;20069;-92
2022/05/25 11:08:32;;;;;;;12.85;12.05;;;32.80;90.50;;;;;;4763097;30;20039;-92
2022/05/25 11:11:21;;;;;;;16.63;12.50;;;32.80;90.20;;;;;;4757602;30;20043;-91
2022/05/25 11:14:34;;;;;;;13.55;12.38;;;33.00;90.80;;;;;;4757184;30;20031;-91
2022/05/25 11:17:38;;;;;;;13.45;12.38;;;33.20;89.10;;;;;;4721356;30;20035;-92
2022/05/25 11:20:17;;;;;;;13.18;12.07;;;33.20;88.30;;;;;;4721286;30;20041;-93
2022/05/25 11:23:07;;;;;;;13.35;12.20;;;33.20;88.60;;;;;;4706941;30;20079;-92
2022/05/25 11:25:46;;;;;;;12.43;11.73;;;33.10;87.30;;;;;;4721106;30;20044;-92
2022/05/25 11:28:42;;;;;;;12.65;11.80;;;32.80;88.90;;;;;;4721154;30;20045;-92
2022/05/25 11:31:24;;;;;;;12.52;11.48;;;32.40;89.90;;;;;;4720727;30;20041;-93
2022/05/25 11:34:03;;;;;;;13.00;11.95;;;32.10;89.70;;;;;;4720957;30;20521;-92
2022/05/25 11:36:51;;;;;;;12.55;11.75;;;32.20;89.10;;;;;;4721350;30;20037;-94
2022/05/25 11:39:33;;;;;;;12.65;11.70;;;31.90;87.80;;;;;;4721336;30;20179;-94
2022/05/25 11:42:07;;;;;;;12.70;11.82;;;32.00;89.20;;;;;;4720889;30;20051;-93
2022/05/25 11:44:43;;;;;;;13.52;12.55;;;31.80;88.90;;;;;;4720653;30;20049;-92
2022/05/25 11:47:25;;;;;;;13.38;12.40;;;32.00;88.00;;;;;;4729460;30;20040;-93
2022/05/25 11:50:30;;;;;;;13.82;12.80;;;32.30;86.40;;;;;;4772081;29;20479;-92
2022/05/25 11:53:25;;;;;;;13.32;12.10;;;32.50;85.30;;;;;;4771334;30;20028;-94
2022/05/25 11:55:57;;;;;;;;;;;32.40;86.10;;;;;;4771674;30;20140;-91
2022/05/25 11:58:37;;;;;;;14.00;13.02;;;32.30;85.60;;;;;;4770973;30;19924;-91
2022/05/25 12:01:38;;;;;;;12.70;11.93;;;32.40;85.20;;;;;;4770918;30;20036;-91
2022/05/25 12:04:19;;;;;;;13.68;12.43;;;32.10;84.00;;;;;;4738580;30;20096;-94
2022/05/25 12:07:03;;;;;;;13.85;12.80;;;32.20;84.10;;;;;;4753493;30;20048;-93
2022/05/25 12:09:40;;;;;;;12.90;11.88;;;31.90;85.30;;;;;;4754437;30;20060;-93
2022/05/25 12:12:40;;;;;;;12.27;11.45;;;31.80;86.20;;;;;;4738990;30;20040;-93
2022/05/25 12:15:37;;;;;;;13.18;12.30;;;31.80;87.10;;;;;;4738401;30;20139;-93
2022/05/25 12:18:15;;;;;;;12.38;11.57;;;32.10;83.20;;;;;;4753041;30;20403;-93
2022/05/25 12:21:05;;;;;;;13.77;12.80;;;32.20;82.40;;;;;;4753141;30;20043;-93
2022/05/25 12:23:43;;;;;;;14.48;11.90;;;32.00;82.00;;;;;;4752851;30;20036;-93
2022/05/25 12:26:27;;;;;;;13.20;12.30;;;31.80;80.00;;;;;;4752688;30;20040;-93
2022/05/25 12:29:03;;;;;;;13.57;12.60;;;31.60;81.90;;;;;;4739954;30;20032;-93
2022/05/25 12:31:38;;;;;;;13.30;12.40;;;31.30;80.40;;;;;;4755065;30;20040;-96
2022/05/25 12:34:05;;;;;;;13.55;12.52;;;31.30;80.60;;;;;;4754449;30;20032;-92
2022/05/25 12:36:32;;;;;;;12.82;11.98;;;31.60;82.20;;;;;;4769872;24;20059;-93
2022/05/25 12:38:59;;;;;;;13.25;12.40;;;31.80;81.80;;;;;;4778010;30;20099;-92
2022/05/25 12:41:37;;;;;;;12.85;12.00;;;31.40;80.70;;;;;;4791107;29;20038;-93
2022/05/25 12:53:24;;;;;;;13.10;12.20;;;31.60;80.30;;;;;;4921700;24;20072;-93
2022/05/25 12:56:16;;;;;;;13.30;12.40;;;31.70;81.20;;;;;;4782102;29;20066;-93
2022/05/25 12:59:00;;;;;;;13.10;12.20;;;31.50;80.10;;;;;;4777766;29;20035;-93
2022/05/25 13:02:35;;;;;;;14.50;13.50;;;31.00;80.40;;;;;;4790848;29;20056;-93
2022/05/25 13:05:06;;;;;;;13.95;12.85;;;30.50;78.60;;;;;;4736720;30;20056;-94
2022/05/25 13:08:04;;;;;;;13.55;12.60;;;30.30;79.40;;;;;;4712774;30;20036;-95
2022/05/25 13:10:44;;;;;;;12.80;12.00;;;30.30;80.10;;;;;;4720299;30;20052;-92
2022/05/25 13:13:50;;;;;;;12.15;11.45;;;30.40;79.70;;;;;;4720910;30;20037;-92
2022/05/25 13:17:03;;;;;;;13.77;12.68;;;30.20;80.60;;;;;;4725463;30;20041;-93
2022/05/25 13:44:31;;;;;;;14.43;13.25;;;31.10;78.00;;;;;;4819508;29;20062;-93
2022/05/25 13:58:27;;;;;;;20.15;18.55;;;30.50;75.50;;;;;;5346381;24;20043;-93
2022/05/25 14:01:57;;;;;;;;;;;;;;;;;;;;;
2022/05/25 14:04:50;;;;;;;18.83;17.33;;;30.20;74.80;;;;;;4660136;30;20066;-93
2022/05/25 14:46:38;;;;;;;20.55;18.50;;;30.40;68.50;;;;;;4804950;29;20055;-95
2022/05/25 14:50:13;;;;;;;24.23;19.88;;;30.60;67.60;;;;;;4788922;30;20050;-94
2022/05/25 14:57:11;;;;;;;21.67;16.80;;;30.60;66.30;;;;;;4902379;24;20119;-94
2022/05/25 15:02:24;;;;;;;19.25;17.25;;;30.50;64.80;;;;;;4757944;30;20048;-92
2022/05/25 15:05:48;;;;;;;21.45;19.35;;;30.10;64.60;;;;;;4759116;30;20510;-94
2022/05/25 15:08:28;;;;;;;22.67;20.17;;;30.10;65.60;;;;;;4917745;24;20138;-92
2022/05/25 15:11:42;;;;;;;20.80;18.80;;;30.30;65.00;;;;;;4822724;24;20058;-93
2022/05/25 15:23:38;;;;;;;46.10;34.47;;;29.80;67.00;;;;;;4850865;24;20118;-92
2022/05/25 15:26:31;;;;;;;26.47;23.50;;;29.90;66.00;;;;;;4792076;29;20058;-92
2022/05/25 15:29:25;;;;;;;15.55;14.45;;;29.90;66.40;;;;;;4789639;29;20281;-93
2022/05/25 15:32:02;;;;;;;19.63;17.58;;;29.80;66.30;;;;;;4788144;29;20083;-94
2022/05/25 15:34:29;;;;;;;18.50;17.00;;;29.70;66.00;;;;;;4801903;29;20094;-91
2022/05/25 15:36:56;;;;;;;19.77;17.77;;;29.70;65.00;;;;;;4783341;29;20088;-92
2022/05/25 15:39:23;;;;;;;21.13;19.02;;;29.50;64.70;;;;;;4795890;29;20039;-92
2022/05/25 15:41:49;;;;;;;18.83;17.20;;;29.50;64.00;;;;;;4796124;29;20035;-91
2022/05/25 15:44:20;;;;;;;17.48;16.08;;;29.50;63.30;;;;;;4795665;29;20038;-93
2022/05/25 15:46:47;;;;;;;19.75;17.90;;;29.30;63.40;;;;;;4796298;29;20050;-93
2022/05/25 15:49:21;;;;;;;16.83;15.60;;;29.40;62.40;;;;;;4778037;30;20043;-92
2022/05/25 15:51:50;;;;;;;19.33;17.73;;;29.40;63.10;;;;;;4777724;30;20050;-93
2022/05/25 15:54:23;;;;;;;15.73;14.57;;;29.30;62.70;;;;;;4780941;30;20066;-93
2022/05/25 15:56:54;;;;;;;16.55;14.93;;;29.10;62.50;;;;;;4785334;30;20130;-93
2022/05/25 15:59:21;;;;;;;15.43;14.30;;;29.00;63.40;;;;;;4780936;30;20050;-92
2022/05/25 16:01:50;;;;;;;14.45;13.65;;;28.80;63.70;;;;;;4782001;30;20043;-91
2022/05/25 16:04:29;;;;;;;14.82;13.70;;;28.70;65.10;;;;;;4780660;30;20039;-90
2022/05/25 16:06:56;;;;;;;14.82;13.73;;;28.70;66.70;;;;;;4783926;30;20441;-91
2022/05/25 16:09:24;;;;;;;17.00;13.57;;;28.80;67.50;;;;;;4783792;30;20482;-93
2022/05/25 16:12:18;;;;;;;15.13;14.00;;;28.80;67.30;;;;;;4799703;30;20032;-91
2022/05/25 16:14:51;;;;;;;;;;;28.60;66.90;;;;;;4756610;30;20089;-93
2022/05/25 16:17:38;;;;;;;14.00;13.20;;;28.60;66.80;;;;;;4799497;30;19960;-92
2022/05/25 16:20:14;;;;;;;10.82;9.30;;;28.50;65.80;;;;;;4802164;29;20091;-93
2022/05/25 16:23:10;;;;;;;8.70;7.50;;;28.20;91.40;;;;;;4804805;29;20062;-92
2022/05/25 16:29:12;;;;;;;7.80;7.03;;;27.50;95.00;;;;;;5033867;24;20063;-92
2022/05/25 16:45:58;;;;;;;5.50;5.00;;;26.00;98.00;;;;;;4979751;24;20133;-92
2022/05/25 16:48:58;;;;;;;8.38;4.70;;;25.80;98.30;;;;;;4715020;30;20064;-92
2022/05/25 16:54:24;;;;;;;6.82;4.45;;;25.50;99.30;;;;;;4780386;30;20063;-91
2022/05/25 16:56:54;;;;;;;6.00;4.25;;;25.40;99.60;;;;;;4778436;30;20035;-92
2022/05/25 16:59:22;;;;;;;7.60;4.78;;;25.30;99.90;;;;;;4776651;30;20182;-92
2022/05/25 17:01:49;;;;;;;5.03;4.00;;;25.20;99.90;;;;;;4761938;30;20043;-93
2022/05/25 17:04:15;;;;;;;5.85;4.40;;;25.30;99.90;;;;;;4761972;30;20120;-92
2022/05/25 17:06:43;;;;;;;8.25;4.32;;;25.20;99.90;;;;;;4761599;30;20028;-93
2022/05/25 17:09:11;;;;;;;3.63;3.33;;;25.10;99.90;;;;;;4763820;30;20469;-91
2022/05/25 17:11:38;;;;;;;8.23;3.55;;;25.00;99.90;;;;;;4762625;30;20036;-91
2022/05/25 17:14:05;;;;;;;4.65;3.63;;;24.90;99.90;;;;;;4761572;30;20478;-92
2022/05/25 17:16:33;;;;;;;3.72;3.10;;;24.80;99.90;;;;;;4761765;30;20056;-92
2022/05/25 17:21:48;;;;;;;6.60;3.15;;;24.70;99.90;;;;;;4777842;30;20036;-91
2022/05/25 17:24:16;;;;;;;6.60;3.30;;;24.70;99.90;;;;;;4755688;30;20036;-93
2022/05/25 17:26:43;;;;;;;15.30;3.60;;;24.50;99.90;;;;;;4756709;30;20038;-92
2022/05/25 17:29:17;;;;;;;10.45;3.90;;;24.50;99.90;;;;;;4775507;30;20538;-92
2022/05/25 17:31:44;;;;;;;16.27;4.47;;;24.40;99.90;;;;;;4758200;30;20046;-93
2022/05/25 17:34:12;;;;;;;20.63;4.18;;;24.40;99.90;;;;;;4756996;30;20552;-92
2022/05/25 17:43:21;;;;;;;6.70;3.10;;;24.10;99.90;;;;;;4785373;30;20044;-93
2022/05/25 17:45:52;;;;;;;10.15;3.30;;;24.00;99.90;;;;;;4763539;30;20044;-93
2022/05/25 17:48:19;;;;;;;9.93;3.15;;;23.90;99.90;;;;;;4764385;30;20036;-93
2022/05/25 17:50:45;;;;;;;19.05;3.15;;;23.80;99.90;;;;;;4765381;30;20064;-93
2022/05/25 17:53:12;;;;;;;13.95;2.53;;;23.70;99.90;;;;;;4761507;30;20052;-92
2022/05/25 17:55:48;;;;;;;9.15;2.20;;;23.60;99.90;;;;;;4767290;30;20063;-94
2022/05/25 17:58:18;;;;;;;15.35;2.95;;;23.50;99.90;;;;;;4764162;30;20123;-93
2022/05/25 18:00:58;;;;;;;12.20;2.75;;;23.40;99.90;;;;;;4760927;30;20032;-94
2022/05/25 18:03:28;;;;;;;11.35;2.90;;;23.40;99.90;;;;;;4760379;30;20035;-94
2022/05/25 18:05:58;;;;;;;8.50;2.67;;;23.30;99.90;;;;;;4760411;30;20040;-92
2022/05/25 18:08:28;;;;;;;7.53;2.35;;;23.20;99.90;;;;;;4758505;30;20027;-93
2022/05/25 18:11:07;;;;;;;8.50;2.55;;;23.10;99.90;;;;;;4759318;30;20059;-93
2022/05/25 18:13:38;;;;;;;8.30;2.55;;;23.00;99.90;;;;;;4758316;30;20068;-93
2022/05/25 18:16:06;;;;;;;6.80;3.05;;;22.90;99.90;;;;;;4758553;30;20039;-93
2022/05/25 18:18:35;;;;;;;9.32;2.33;;;22.80;99.90;;;;;;4759591;30;20119;-93
2022/05/25 18:21:02;;;;;;;7.40;2.60;;;22.70;99.90;;;;;;4757655;30;20036;-92
2022/05/25 18:23:29;;;;;;;8.93;3.25;;;22.70;99.90;;;;;;4757595;30;20479;-93
2022/05/25 18:25:55;;;;;;;16.13;4.28;;;22.60;99.90;;;;;;4758470;30;20126;-93
2022/05/25 18:28:22;;;;;;;12.00;3.53;;;22.60;99.90;;;;;;4758065;30;20031;-92